sensor_id;sensor_type;location;lat;lon;timestamp;temperature;humidity
52167;DHT22;38149;52.666;6.428;2022-11-20T00:01:03;-1.30;99.90
52167;DHT22;38149;52.666;6.428;2022-11-20T00:03:33;-1.40;99.90
52167;DHT22;38149;52.666;6.428;2022-11-20T00:06:03;-1.30;99.90
52167;DHT22;38149;52.666;6.428;2022-11-20T00:08:32;-1.40;99.90
52167;DHT22;38149;52.666;6.428;2022-11-20T00:11:03;-1.30;99.90
52167;DHT22;38149;52.666;6.428;2022-11-20T00:13:29;-1.30;99.90
52167;DHT22;38149;52.666;6.428;2022-11-20T00:15:59;-1.40;99.90
52167;DHT22;38149;52.666;6.428;2022-11-20T00:18:26;-1.40;99.90
52167;DHT22;38149;52.666;6.428;2022-11-20T00:20:52;-1.40;99.90
52167;DHT22;38149;52.666;6.428;2022-11-20T00:23:19;-1.40;99.90
52167;DHT22;38149;52.666;6.428;2022-11-20T00:25:45;-1.40;99.90
52167;DHT22;38149;52.666;6.428;2022-11-20T00:28:11;-1.50;99.90
52167;DHT22;38149;52.666;6.428;2022-11-20T00:30:36;-1.40;99.90
52167;DHT22;38149;52.666;6.428;2022-11-20T00:33:02;-1.50;99.90
52167;DHT22;38149;52.666;6.428;2022-11-20T00:35:28;-1.70;99.90
52167;DHT22;38149;52.666;6.428;2022-11-20T00:37:53;-1.50;99.90
52167;DHT22;38149;52.666;6.428;2022-11-20T00:40:19;-1.50;99.90
52167;DHT22;38149;52.666;6.428;2022-11-20T00:42:45;-1.60;99.90
52167;DHT22;38149;52.666;6.428;2022-11-20T00:45:10;-1.50;99.90
52167;DHT22;38149;52.666;6.428;2022-11-20T00:47:36;-1.50;99.90
52167;DHT22;38149;52.666;6.428;2022-11-20T00:50:02;-1.50;99.90
52167;DHT22;38149;52.666;6.428;2022-11-20T00:52:28;-1.60;99.90
52167;DHT22;38149;52.666;6.428;2022-11-20T00:54:54;-1.70;99.90
52167;DHT22;38149;52.666;6.428;2022-11-20T00:57:20;-1.50;99.90
52167;DHT22;38149;52.666;6.428;2022-11-20T00:59:45;-1.50;99.90
52167;DHT22;38149;52.666;6.428;2022-11-20T01:02:11;-1.40;99.90
52167;DHT22;38149;52.666;6.428;2022-11-20T01:04:37;-1.60;99.90
52167;DHT22;38149;52.666;6.428;2022-11-20T01:14:25;-1.70;99.90
52167;DHT22;38149;52.666;6.428;2022-11-20T01:16:52;-1.70;99.90
52167;DHT22;38149;52.666;6.428;2022-11-20T01:19:22;-1.50;99.90
52167;DHT22;38149;52.666;6.428;2022-11-20T01:24:19;-1.70;99.90
52167;DHT22;38149;52.666;6.428;2022-11-20T01:49:58;-2.00;99.90
52167;DHT22;38149;52.666;6.428;2022-11-20T01:52:35;-1.80;99.90
52167;DHT22;38149;52.666;6.428;2022-11-20T01:55:13;-1.80;99.90
52167;DHT22;38149;52.666;6.428;2022-11-20T02:02:40;-1.70;99.90
52167;DHT22;38149;52.666;6.428;2022-11-20T02:05:20;-1.70;99.90
52167;DHT22;38149;52.666;6.428;2022-11-20T02:07:50;-1.80;99.90
52167;DHT22;38149;52.666;6.428;2022-11-20T02:10:16;-1.90;99.90
52167;DHT22;38149;52.666;6.428;2022-11-20T02:12:42;-2.30;99.90
52167;DHT22;38149;52.666;6.428;2022-11-20T02:15:26;-1.90;99.90
52167;DHT22;38149;52.666;6.428;2022-11-20T02:17:53;-2.00;99.90
52167;DHT22;38149;52.666;6.428;2022-11-20T02:20:18;-2.00;99.90
52167;DHT22;38149;52.666;6.428;2022-11-20T02:22:53;-2.00;99.90
52167;DHT22;38149;52.666;6.428;2022-11-20T02:25:21;-1.90;99.90
52167;DHT22;38149;52.666;6.428;2022-11-20T02:27:47;-2.00;99.90
52167;DHT22;38149;52.666;6.428;2022-11-20T02:30:13;-1.80;99.90
52167;DHT22;38149;52.666;6.428;2022-11-20T02:35:38;-1.90;99.90
52167;DHT22;38149;52.666;6.428;2022-11-20T02:37:58;-2.00;99.90
52167;DHT22;38149;52.666;6.428;2022-11-20T02:40:25;-2.20;99.90
52167;DHT22;38149;52.666;6.428;2022-11-20T02:42:55;-2.00;99.90
52167;DHT22;38149;52.666;6.428;2022-11-20T05:08:41;-2.40;99.90
52167;DHT22;38149;52.666;6.428;2022-11-20T05:11:16;-2.40;99.90
52167;DHT22;38149;52.666;6.428;2022-11-20T05:13:42;-2.00;99.90
52167;DHT22;38149;52.666;6.428;2022-11-20T05:16:10;-2.40;99.90
52167;DHT22;38149;52.666;6.428;2022-11-20T05:18:38;-2.30;99.90
52167;DHT22;38149;52.666;6.428;2022-11-20T05:21:05;-2.30;99.90
52167;DHT22;38149;52.666;6.428;2022-11-20T05:28:29;-2.30;99.90
52167;DHT22;38149;52.666;6.428;2022-11-20T05:31:05;-2.50;99.90
52167;DHT22;38149;52.666;6.428;2022-11-20T05:40:53;-2.40;99.90
52167;DHT22;38149;52.666;6.428;2022-11-20T05:45:56;-2.20;99.90
52167;DHT22;38149;52.666;6.428;2022-11-20T05:55:43;-2.30;99.90
52167;DHT22;38149;52.666;6.428;2022-11-20T05:58:09;-2.30;99.90
52167;DHT22;38149;52.666;6.428;2022-11-20T06:00:34;-2.40;99.90
52167;DHT22;38149;52.666;6.428;2022-11-20T06:03:01;-2.50;99.90
52167;DHT22;38149;52.666;6.428;2022-11-20T06:05:26;-2.30;99.90
52167;DHT22;38149;52.666;6.428;2022-11-20T06:17:41;-2.30;99.90
52167;DHT22;38149;52.666;6.428;2022-11-20T06:20:09;-2.30;99.90
52167;DHT22;38149;52.666;6.428;2022-11-20T06:25:01;-2.40;99.90
52167;DHT22;38149;52.666;6.428;2022-11-20T06:27:27;-2.20;99.90
52167;DHT22;38149;52.666;6.428;2022-11-20T06:29:52;-2.30;99.90
52167;DHT22;38149;52.666;6.428;2022-11-20T06:44:32;-2.10;99.90
52167;DHT22;38149;52.666;6.428;2022-11-20T07:04:12;-2.10;99.90
52167;DHT22;38149;52.666;6.428;2022-11-20T07:06:38;-2.20;99.90
52167;DHT22;38149;52.666;6.428;2022-11-20T07:16:23;-2.10;99.90
52167;DHT22;38149;52.666;6.428;2022-11-20T08:42:50;-1.30;99.90
52167;DHT22;38149;52.666;6.428;2022-11-20T08:45:17;-1.50;99.90
52167;DHT22;38149;52.666;6.428;2022-11-20T08:47:44;-1.20;99.90
52167;DHT22;38149;52.666;6.428;2022-11-20T08:52:39;-1.40;99.90
52167;DHT22;38149;52.666;6.428;2022-11-20T08:55:05;-1.30;99.90
52167;DHT22;38149;52.666;6.428;2022-11-20T09:00:03;-1.30;99.90
52167;DHT22;38149;52.666;6.428;2022-11-20T09:02:29;-1.20;99.90
52167;DHT22;38149;52.666;6.428;2022-11-20T09:04:55;-1.30;99.90
52167;DHT22;38149;52.666;6.428;2022-11-20T09:07:21;-1.20;99.90
52167;DHT22;38149;52.666;6.428;2022-11-20T09:09:47;-1.10;99.90
52167;DHT22;38149;52.666;6.428;2022-11-20T09:12:13;-1.20;99.90
52167;DHT22;38149;52.666;6.428;2022-11-20T09:14:39;-1.10;99.90
52167;DHT22;38149;52.666;6.428;2022-11-20T09:17:04;-1.00;99.90
52167;DHT22;38149;52.666;6.428;2022-11-20T09:19:33;-0.90;99.90
52167;DHT22;38149;52.666;6.428;2022-11-20T09:21:58;-1.20;99.90
52167;DHT22;38149;52.666;6.428;2022-11-20T09:24:26;-0.90;99.90
52167;DHT22;38149;52.666;6.428;2022-11-20T09:26:52;-0.90;99.90
52167;DHT22;38149;52.666;6.428;2022-11-20T09:29:17;-0.90;99.90
52167;DHT22;38149;52.666;6.428;2022-11-20T09:31:43;-0.90;99.90
52167;DHT22;38149;52.666;6.428;2022-11-20T09:34:09;-0.90;99.90
52167;DHT22;38149;52.666;6.428;2022-11-20T09:36:35;-0.90;99.90
52167;DHT22;38149;52.666;6.428;2022-11-20T09:39:01;-0.70;99.90
52167;DHT22;38149;52.666;6.428;2022-11-20T09:42:03;-0.80;99.90
52167;DHT22;38149;52.666;6.428;2022-11-20T09:55:47;-0.70;99.90
52167;DHT22;38149;52.666;6.428;2022-11-20T09:58:22;-0.70;99.90
52167;DHT22;38149;52.666;6.428;2022-11-20T10:01:14;-0.50;99.90
52167;DHT22;38149;52.666;6.428;2022-11-20T10:03:50;-0.60;99.90
52167;DHT22;38149;52.666;6.428;2022-11-20T10:09:31;-0.40;99.90
52167;DHT22;38149;52.666;6.428;2022-11-20T10:14:54;-0.70;99.90
52167;DHT22;38149;52.666;6.428;2022-11-20T10:18:01;-0.10;99.90
52167;DHT22;38149;52.666;6.428;2022-11-20T10:26:14;-0.30;99.90
52167;DHT22;38149;52.666;6.428;2022-11-20T10:29:03;-0.20;99.90
52167;DHT22;38149;52.666;6.428;2022-11-20T10:31:45;-0.10;99.90
52167;DHT22;38149;52.666;6.428;2022-11-20T10:37:24;-0.20;99.90
52167;DHT22;38149;52.666;6.428;2022-11-20T10:42:37;-0.10;99.90
52167;DHT22;38149;52.666;6.428;2022-11-20T10:51:07;0.10;99.90
52167;DHT22;38149;52.666;6.428;2022-11-20T10:53:51;0.00;99.90
52167;DHT22;38149;52.666;6.428;2022-11-20T10:59:27;0.20;99.90
52167;DHT22;38149;52.666;6.428;2022-11-20T11:01:59;0.30;99.90
52167;DHT22;38149;52.666;6.428;2022-11-20T11:07:14;0.20;99.90
52167;DHT22;38149;52.666;6.428;2022-11-20T11:09:47;0.60;99.90
52167;DHT22;38149;52.666;6.428;2022-11-20T11:12:18;0.30;99.90
52167;DHT22;38149;52.666;6.428;2022-11-20T11:14:52;0.30;99.90
52167;DHT22;38149;52.666;6.428;2022-11-20T11:17:33;0.40;99.90
52167;DHT22;38149;52.666;6.428;2022-11-20T11:20:07;0.40;99.90
52167;DHT22;38149;52.666;6.428;2022-11-20T11:22:48;0.50;99.90
52167;DHT22;38149;52.666;6.428;2022-11-20T11:27:58;0.80;99.90
52167;DHT22;38149;52.666;6.428;2022-11-20T11:30:26;0.50;99.90
52167;DHT22;38149;52.666;6.428;2022-11-20T11:33:18;-0.30;99.90
52167;DHT22;38149;52.666;6.428;2022-11-20T11:36:21;0.60;99.90
52167;DHT22;38149;52.666;6.428;2022-11-20T11:38:43;0.20;99.90
52167;DHT22;38149;52.666;6.428;2022-11-20T11:41:14;0.50;99.90
52167;DHT22;38149;52.666;6.428;2022-11-20T11:43:51;0.50;99.90
52167;DHT22;38149;52.666;6.428;2022-11-20T11:46:37;0.60;99.90
52167;DHT22;38149;52.666;6.428;2022-11-20T11:51:41;0.50;99.90
52167;DHT22;38149;52.666;6.428;2022-11-20T11:54:47;0.40;99.90
52167;DHT22;38149;52.666;6.428;2022-11-20T11:57:39;0.10;99.90
52167;DHT22;38149;52.666;6.428;2022-11-20T12:00:20;0.60;99.90
52167;DHT22;38149;52.666;6.428;2022-11-20T12:05:31;0.90;99.90
52167;DHT22;38149;52.666;6.428;2022-11-20T12:08:05;0.90;99.90
52167;DHT22;38149;52.666;6.428;2022-11-20T12:10:57;0.70;99.90
52167;DHT22;38149;52.666;6.428;2022-11-20T12:13:32;1.00;99.90
52167;DHT22;38149;52.666;6.428;2022-11-20T12:16:03;0.70;99.90
52167;DHT22;38149;52.666;6.428;2022-11-20T12:18:30;1.00;99.90
52167;DHT22;38149;52.666;6.428;2022-11-20T12:24:06;0.40;99.90
52167;DHT22;38149;52.666;6.428;2022-11-20T12:30:17;1.20;99.90
52167;DHT22;38149;52.666;6.428;2022-11-20T12:35:50;1.00;99.90
52167;DHT22;38149;52.666;6.428;2022-11-20T12:38:48;1.40;99.90
52167;DHT22;38149;52.666;6.428;2022-11-20T12:53:59;1.20;99.90
52167;DHT22;38149;52.666;6.428;2022-11-20T12:57:09;1.30;99.90
52167;DHT22;38149;52.666;6.428;2022-11-20T12:59:53;1.20;99.90
52167;DHT22;38149;52.666;6.428;2022-11-20T13:07:52;1.20;99.90
52167;DHT22;38149;52.666;6.428;2022-11-20T13:10:26;1.30;99.90
52167;DHT22;38149;52.666;6.428;2022-11-20T13:26:21;1.40;99.90
52167;DHT22;38149;52.666;6.428;2022-11-20T13:29:01;1.30;99.90
52167;DHT22;38149;52.666;6.428;2022-11-20T13:31:33;1.40;99.90
52167;DHT22;38149;52.666;6.428;2022-11-20T13:34:03;1.40;99.90
52167;DHT22;38149;52.666;6.428;2022-11-20T13:36:30;1.40;99.90
52167;DHT22;38149;52.666;6.428;2022-11-20T13:41:33;1.50;99.90
52167;DHT22;38149;52.666;6.428;2022-11-20T13:46:37;1.40;99.90
52167;DHT22;38149;52.666;6.428;2022-11-20T13:49:15;1.30;99.90
52167;DHT22;38149;52.666;6.428;2022-11-20T13:51:48;1.50;99.90
52167;DHT22;38149;52.666;6.428;2022-11-20T13:54:55;1.50;99.90
52167;DHT22;38149;52.666;6.428;2022-11-20T13:57:48;1.50;99.90
52167;DHT22;38149;52.666;6.428;2022-11-20T14:00:25;1.50;99.90
52167;DHT22;38149;52.666;6.428;2022-11-20T14:03:09;1.40;99.90
52167;DHT22;38149;52.666;6.428;2022-11-20T14:11:28;1.60;99.90
52167;DHT22;38149;52.666;6.428;2022-11-20T14:16:44;1.70;99.90
52167;DHT22;38149;52.666;6.428;2022-11-20T14:21:45;1.70;99.90
52167;DHT22;38149;52.666;6.428;2022-11-20T14:24:12;1.20;99.90
52167;DHT22;38149;52.666;6.428;2022-11-20T14:26:47;1.60;99.90
52167;DHT22;38149;52.666;6.428;2022-11-20T15:41:33;1.80;99.90
52167;DHT22;38149;52.666;6.428;2022-11-20T15:46:29;2.00;99.90
52167;DHT22;38149;52.666;6.428;2022-11-20T15:48:59;1.60;99.90
52167;DHT22;38149;52.666;6.428;2022-11-20T15:54:18;1.80;99.90
52167;DHT22;38149;52.666;6.428;2022-11-20T15:56:46;1.80;99.90
52167;DHT22;38149;52.666;6.428;2022-11-20T15:59:13;1.80;99.90
52167;DHT22;38149;52.666;6.428;2022-11-20T16:01:42;1.90;99.90
52167;DHT22;38149;52.666;6.428;2022-11-20T16:04:12;1.80;99.90
52167;DHT22;38149;52.666;6.428;2022-11-20T16:06:39;1.80;99.90
52167;DHT22;38149;52.666;6.428;2022-11-20T16:09:05;1.80;99.90
52167;DHT22;38149;52.666;6.428;2022-11-20T16:11:31;1.80;99.90
52167;DHT22;38149;52.666;6.428;2022-11-20T16:13:57;1.80;99.90
52167;DHT22;38149;52.666;6.428;2022-11-20T16:19:11;1.80;99.90
52167;DHT22;38149;52.666;6.428;2022-11-20T16:21:38;1.90;99.90
52167;DHT22;38149;52.666;6.428;2022-11-20T16:36:31;1.80;99.90
52167;DHT22;38149;52.666;6.428;2022-11-20T16:44:00;2.00;99.90
52167;DHT22;38149;52.666;6.428;2022-11-20T16:46:31;2.00;99.90
52167;DHT22;38149;52.666;6.428;2022-11-20T16:59:02;1.90;99.90
52167;DHT22;38149;52.666;6.428;2022-11-20T17:01:31;1.90;99.90
52167;DHT22;38149;52.666;6.428;2022-11-20T17:16:27;1.80;99.90
52167;DHT22;38149;52.666;6.428;2022-11-20T17:26:21;2.00;99.90
52167;DHT22;38149;52.666;6.428;2022-11-20T17:28:56;1.90;99.90
52167;DHT22;38149;52.666;6.428;2022-11-20T17:33:54;1.80;99.90
52167;DHT22;38149;52.666;6.428;2022-11-20T17:38:48;1.80;99.90
52167;DHT22;38149;52.666;6.428;2022-11-20T17:43:48;1.70;99.90
52167;DHT22;38149;52.666;6.428;2022-11-20T20:03:57;1.60;99.90
52167;DHT22;38149;52.666;6.428;2022-11-20T20:11:29;1.70;99.90
52167;DHT22;38149;52.666;6.428;2022-11-20T20:16:25;1.70;99.90
52167;DHT22;38149;52.666;6.428;2022-11-20T20:18:54;1.60;99.90
52167;DHT22;38149;52.666;6.428;2022-11-20T20:21:20;1.60;99.90
52167;DHT22;38149;52.666;6.428;2022-11-20T20:23:50;1.60;99.90
52167;DHT22;38149;52.666;6.428;2022-11-20T20:26:20;1.60;99.90
52167;DHT22;38149;52.666;6.428;2022-11-20T20:28:47;1.70;99.90
52167;DHT22;38149;52.666;6.428;2022-11-20T20:31:15;1.70;99.90
52167;DHT22;38149;52.666;6.428;2022-11-20T20:33:42;1.50;99.90
52167;DHT22;38149;52.666;6.428;2022-11-20T20:36:10;1.70;99.90
52167;DHT22;38149;52.666;6.428;2022-11-20T20:38:36;1.60;99.90
52167;DHT22;38149;52.666;6.428;2022-11-20T20:41:02;1.70;99.90
52167;DHT22;38149;52.666;6.428;2022-11-20T20:46:17;1.60;99.90
52167;DHT22;38149;52.666;6.428;2022-11-20T20:48:43;1.60;99.90
52167;DHT22;38149;52.666;6.428;2022-11-20T20:51:09;1.40;99.90
52167;DHT22;38149;52.666;6.428;2022-11-20T20:53:34;1.60;99.90
52167;DHT22;38149;52.666;6.428;2022-11-20T20:56:01;1.60;99.90
52167;DHT22;38149;52.666;6.428;2022-11-20T20:58:28;1.60;99.90
52167;DHT22;38149;52.666;6.428;2022-11-20T21:01:00;1.60;99.90
52167;DHT22;38149;52.666;6.428;2022-11-20T21:03:27;1.60;99.90
52167;DHT22;38149;52.666;6.428;2022-11-20T21:05:56;1.60;99.90
52167;DHT22;38149;52.666;6.428;2022-11-20T21:15:52;1.50;99.90
52167;DHT22;38149;52.666;6.428;2022-11-20T21:33:43;1.60;99.90
52167;DHT22;38149;52.666;6.428;2022-11-20T22:03:37;1.60;99.90
52167;DHT22;38149;52.666;6.428;2022-11-20T22:08:32;1.70;99.90
52167;DHT22;38149;52.666;6.428;2022-11-20T22:11:01;1.60;99.90
52167;DHT22;38149;52.666;6.428;2022-11-20T22:48:53;1.70;99.90
52167;DHT22;38149;52.666;6.428;2022-11-20T22:51:26;1.70;99.90
52167;DHT22;38149;52.666;6.428;2022-11-20T22:56:20;1.50;99.90
52167;DHT22;38149;52.666;6.428;2022-11-20T22:58:48;1.50;99.90
52167;DHT22;38149;52.666;6.428;2022-11-20T23:01:20;1.50;99.90
52167;DHT22;38149;52.666;6.428;2022-11-20T23:03:53;1.60;99.90
52167;DHT22;38149;52.666;6.428;2022-11-20T23:06:21;1.50;99.90
52167;DHT22;38149;52.666;6.428;2022-11-20T23:08:48;1.50;99.90
52167;DHT22;38149;52.666;6.428;2022-11-20T23:11:16;1.50;99.90
52167;DHT22;38149;52.666;6.428;2022-11-20T23:13:44;1.60;99.90
52167;DHT22;38149;52.666;6.428;2022-11-20T23:16:13;2.10;99.90
52167;DHT22;38149;52.666;6.428;2022-11-20T23:18:40;1.60;99.90
52167;DHT22;38149;52.666;6.428;2022-11-20T23:21:14;1.60;99.90
52167;DHT22;38149;52.666;6.428;2022-11-20T23:23:42;1.50;99.90
52167;DHT22;38149;52.666;6.428;2022-11-20T23:26:10;1.60;99.90
52167;DHT22;38149;52.666;6.428;2022-11-20T23:28:38;1.60;99.90
52167;DHT22;38149;52.666;6.428;2022-11-20T23:31:05;1.60;99.90
52167;DHT22;38149;52.666;6.428;2022-11-20T23:33:34;1.60;99.90
52167;DHT22;38149;52.666;6.428;2022-11-20T23:36:01;1.70;99.90
52167;DHT22;38149;52.666;6.428;2022-11-20T23:38:27;1.60;99.90
52167;DHT22;38149;52.666;6.428;2022-11-20T23:40:52;1.00;99.90
52167;DHT22;38149;52.666;6.428;2022-11-20T23:43:20;1.30;99.90
52167;DHT22;38149;52.666;6.428;2022-11-20T23:45:48;2.00;99.90
52167;DHT22;38149;52.666;6.428;2022-11-20T23:48:43;1.70;99.90
52167;DHT22;38149;52.666;6.428;2022-11-20T23:51:09;1.70;99.90
52167;DHT22;38149;52.666;6.428;2022-11-20T23:53:34;1.70;99.90
52167;DHT22;38149;52.666;6.428;2022-11-20T23:56:02;1.70;99.90
52167;DHT22;38149;52.666;6.428;2022-11-20T23:58:31;1.40;99.90
